createdAt,value
2023-04-23T18:49:11.575Z,20.00
2023-04-23T18:50:45.820Z,24.69
2023-04-23T18:51:52.992Z,15.06
2023-04-23T18:52:56.898Z,16.06
2023-04-23T18:54:02.286Z,17.12
2023-04-23T18:55:06.469Z,18.00
2023-04-23T18:56:10.475Z,21.12
2023-04-23T18:57:14.406Z,20.25
2023-04-23T18:58:18.247Z,21.50
2023-04-23T18:59:22.210Z,4.25
2023-04-23T19:00:31.110Z,20.06
2023-04-23T19:01:34.961Z,23.56
2023-04-23T19:02:40.779Z,19.44
2023-04-23T19:03:44.864Z,20.81
2023-04-23T19:04:49.241Z,21.37
2023-04-23T19:05:55.736Z,24.06
2023-04-23T19:07:00.467Z,23.12
2023-04-23T19:08:04.394Z,23.06
2023-04-23T19:09:08.466Z,26.06
2023-04-23T19:10:16.202Z,27.13
2023-04-23T19:11:20.233Z,24.44
2023-04-23T19:12:24.250Z,24.50
2023-04-23T19:13:32.327Z,26.56
2023-04-23T19:14:36.589Z,26.00
2023-04-23T19:15:40.682Z,24.00
2023-04-23T19:16:44.819Z,22.81
2023-04-23T19:17:56.766Z,19.87
2023-04-23T19:19:00.728Z,24.37
2023-04-23T19:20:04.977Z,21.25
2023-04-23T19:21:08.826Z,23.69
2023-04-23T19:22:12.767Z,22.37
2023-04-23T19:23:16.658Z,28.19
2023-04-23T19:24:20.624Z,26.69
2023-04-23T19:25:26.146Z,23.56
2023-04-23T19:26:30.223Z,26.56
2023-04-23T19:27:34.893Z,70.47
2023-04-23T19:28:38.843Z,86.67
2023-04-23T19:29:43.050Z,41.63
2023-04-23T19:30:47.225Z,43.63
2023-04-23T19:31:51.151Z,35.06
2023-04-23T19:32:55.254Z,37.07
2023-04-23T19:33:59.253Z,34.00
2023-04-23T19:35:04.133Z,30.00
2023-04-23T19:36:09.851Z,31.06
2023-04-23T19:37:13.722Z,35.31
2023-04-23T19:40:00.945Z,38.06
2023-04-23T19:41:06.393Z,34.75
2023-04-23T19:42:30.875Z,39.00
2023-04-23T19:43:34.946Z,39.00
2023-04-23T19:44:41.508Z,39.38
2023-04-23T19:45:45.454Z,39.56
2023-04-23T19:46:49.326Z,35.13
2023-04-23T19:47:54.018Z,38.07
2023-04-23T19:48:57.921Z,38.60
2023-04-23T19:50:05.833Z,36.56
2023-04-23T19:51:11.444Z,41.00
2023-04-23T19:52:37.223Z,38.69
2023-04-23T19:53:41.247Z,36.81
2023-04-23T19:54:48.412Z,37.80
2023-04-23T19:55:52.329Z,38.94
2023-04-23T19:57:02.320Z,37.63
2023-04-23T19:58:08.328Z,34.56
2023-04-23T19:59:11.941Z,34.88
2023-04-23T20:00:20.560Z,33.88
2023-04-23T20:01:29.047Z,34.75
2023-04-23T20:02:39.693Z,34.19
2023-04-23T20:04:01.785Z,36.81
2023-04-23T20:05:06.243Z,30.37
2023-04-23T20:06:10.305Z,33.00
2023-04-23T20:07:15.391Z,34.13
2023-04-23T20:08:19.323Z,33.88
2023-04-23T20:09:23.271Z,33.60
2023-04-23T20:10:29.956Z,34.31
2023-04-23T20:11:37.202Z,30.00
2023-04-23T20:12:41.062Z,33.69
2023-04-23T20:13:56.935Z,30.12
2023-04-23T20:15:00.876Z,30.06
2023-04-23T20:16:05.266Z,34.50
2023-04-23T20:17:11.293Z,35.13
2023-04-23T20:18:16.760Z,31.50
2023-04-23T20:19:20.611Z,33.94
2023-04-23T20:20:24.683Z,34.19
2023-04-23T20:21:28.686Z,43.19
2023-04-23T20:22:36.834Z,57.60
2023-04-23T20:23:40.854Z,64.73
2023-04-23T20:24:46.641Z,45.27
2023-04-23T20:25:50.694Z,38.69
2023-04-23T20:26:54.773Z,61.37
2023-04-23T20:27:58.860Z,54.73
2023-04-23T20:29:04.783Z,56.63
2023-04-23T20:30:10.969Z,50.60
2023-04-23T20:31:17.993Z,42.62
2023-04-23T20:32:22.544Z,37.13
2023-04-23T20:33:26.501Z,42.31
2023-04-23T20:34:30.559Z,38.38
2023-04-23T20:35:34.542Z,35.31
2023-04-23T20:36:38.513Z,35.81
2023-04-23T20:37:42.373Z,38.00
2023-04-23T20:38:57.625Z,45.73
2023-04-23T20:39:51.830Z,44.56
2023-04-23T20:40:55.672Z,47.13
2023-04-23T20:42:01.208Z,41.60
2023-04-23T20:43:05.348Z,43.75
2023-04-23T20:44:10.048Z,40.81
2023-04-23T20:45:13.977Z,39.38
2023-04-23T20:46:18.042Z,38.75
2023-04-23T20:47:24.667Z,35.44
2023-04-23T20:48:30.806Z,35.44
2023-04-23T20:49:36.405Z,36.94
2023-04-23T20:50:43.994Z,36.25
2023-04-23T20:51:47.608Z,36.00
2023-04-23T20:52:52.481Z,35.75
2023-04-23T20:53:58.121Z,34.00
2023-04-23T20:55:05.488Z,33.13
2023-04-23T20:56:08.942Z,33.13
2023-04-23T20:57:12.924Z,31.87
2023-04-23T20:58:16.978Z,35.44
2023-04-23T20:59:22.339Z,40.63
2023-04-23T21:00:27.353Z,37.75
2023-04-23T21:01:31.406Z,39.13
2023-04-23T21:02:35.986Z,62.67
2023-04-23T21:03:40.976Z,38.63
2023-04-23T21:04:44.933Z,42.53
2023-04-23T21:05:48.780Z,35.56
2023-04-23T21:06:52.785Z,39.53
2023-04-23T21:07:56.701Z,39.44
2023-04-23T21:09:00.729Z,37.25
2023-04-23T21:10:05.993Z,31.06
2023-04-23T21:11:17.738Z,31.81
2023-04-23T21:12:21.841Z,34.33
2023-04-23T21:13:25.943Z,30.37
2023-04-23T21:14:30.274Z,26.06
2023-04-23T21:15:34.208Z,30.19
2023-04-23T21:16:38.883Z,28.62
2023-04-23T21:17:43.147Z,25.31
2023-04-23T21:18:47.055Z,25.25
2023-04-23T21:19:51.592Z,20.94
2023-04-23T21:20:55.559Z,13.13
2023-04-23T21:22:01.517Z,21.00
2023-04-23T21:23:05.276Z,18.12
2023-04-23T21:24:09.207Z,23.00
2023-04-23T21:25:13.036Z,24.00
2023-04-23T21:26:17.061Z,21.00
2023-04-23T21:27:20.974Z,23.31
2023-04-23T21:28:25.343Z,23.19
2023-04-23T21:29:31.577Z,28.19
2023-04-23T21:30:48.006Z,29.19
2023-04-23T21:31:53.224Z,31.31
2023-04-23T21:32:57.334Z,30.12
2023-04-23T21:34:01.411Z,33.40
2023-04-23T21:35:06.074Z,39.13
2023-04-23T21:36:11.599Z,34.75
2023-04-23T21:37:15.435Z,23.94
2023-04-23T21:38:20.788Z,15.06
2023-04-23T21:39:24.669Z,19.75
2023-04-23T21:40:28.652Z,28.56
2023-04-23T21:41:32.711Z,15.69
2023-04-23T21:42:36.890Z,30.25
2023-04-23T21:43:40.825Z,30.73
2023-04-23T21:44:44.815Z,29.44
2023-04-23T21:45:48.850Z,30.73
2023-04-23T21:46:52.866Z,30.88
2023-04-23T21:47:56.899Z,26.56
2023-04-23T21:49:00.884Z,31.25
2023-04-23T21:50:05.133Z,27.94
2023-04-23T21:51:09.118Z,30.00
2023-04-23T21:52:13.027Z,23.06
2023-04-23T21:53:16.876Z,31.62
2023-04-23T21:54:21.206Z,31.25
2023-04-23T21:55:27.859Z,31.25
2023-04-23T21:56:31.947Z,26.56
2023-04-23T21:57:35.944Z,29.56
2023-04-23T21:58:39.868Z,32.81
2023-04-23T21:59:44.103Z,31.69
2023-04-23T22:00:48.296Z,34.69
2023-04-23T22:01:52.268Z,35.63
2023-04-23T22:02:58.052Z,34.63
2023-04-23T22:04:07.866Z,31.19
2023-04-23T22:05:09.131Z,30.88
2023-04-23T22:06:13.641Z,32.25
2023-04-23T22:07:17.621Z,35.25
2023-04-23T22:08:21.540Z,34.25
2023-04-23T22:09:25.558Z,35.88
2023-04-23T22:10:29.596Z,35.63
2023-04-23T22:11:33.575Z,35.88
2023-04-23T22:12:38.488Z,34.44
2023-04-23T22:13:45.493Z,36.69
2023-04-23T22:14:49.314Z,36.19
2023-04-23T22:15:53.333Z,35.88
2023-04-23T22:16:57.366Z,33.67
2023-04-23T22:18:01.313Z,33.31
2023-04-23T22:19:05.245Z,34.75
2023-04-23T22:20:11.615Z,33.31
2023-04-23T22:21:15.559Z,36.81
2023-04-23T22:23:50.915Z,29.25
2023-04-23T22:24:54.803Z,32.38
2023-04-23T22:25:58.749Z,34.44
2023-04-23T22:27:02.599Z,30.94
2023-04-23T22:28:06.572Z,34.56
2023-04-23T22:29:10.644Z,35.13
2023-04-23T22:30:14.836Z,29.94
2023-04-23T22:31:20.551Z,26.69
2023-04-23T22:32:24.539Z,21.81
2023-04-23T22:33:28.435Z,23.31
2023-04-23T22:34:32.492Z,21.31
2023-04-23T22:35:36.454Z,25.56
2023-04-23T22:36:40.386Z,25.37
2023-04-23T22:37:47.104Z,25.12
2023-04-23T22:38:50.063Z,26.69
2023-04-23T22:39:54.091Z,27.25
2023-04-23T22:40:58.011Z,24.44
2023-04-23T22:42:01.854Z,27.19
2023-04-23T22:43:05.739Z,25.25
2023-04-23T22:44:09.632Z,27.81
2023-04-23T22:45:13.476Z,30.12
2023-04-23T22:46:17.484Z,27.06
2023-04-23T22:47:21.598Z,28.60
2023-04-23T22:48:25.617Z,29.12
2023-04-23T22:49:29.597Z,30.06
2023-04-23T22:50:33.701Z,28.25
2023-04-23T22:51:37.614Z,30.50
2023-04-23T22:52:41.623Z,28.31
2023-04-23T22:53:47.076Z,29.37
2023-04-23T22:54:52.653Z,25.88
2023-04-23T22:55:58.310Z,30.00
2023-04-23T22:57:02.670Z,32.63
2023-04-23T22:58:07.935Z,32.50
2023-04-23T22:59:13.601Z,33.13
2023-04-23T23:00:17.577Z,27.56
2023-04-23T23:01:21.634Z,31.47
2023-04-23T23:02:25.635Z,33.06
2023-04-23T23:03:29.884Z,33.69
2023-04-23T23:04:34.226Z,19.87
2023-04-23T23:05:38.261Z,34.75
2023-04-23T23:06:42.248Z,30.94
2023-04-23T23:07:46.060Z,34.56
2023-04-23T23:08:50.068Z,34.19
2023-04-23T23:09:53.974Z,31.81
2023-04-23T23:10:57.986Z,34.56
2023-04-23T23:12:03.518Z,31.06
2023-04-23T23:13:07.608Z,33.13
2023-04-23T23:14:11.650Z,34.94
2023-04-23T23:15:15.655Z,33.31
2023-04-23T23:16:19.564Z,31.12
2023-04-23T23:17:23.478Z,34.06
2023-04-23T23:18:27.436Z,31.06
2023-04-23T23:19:31.436Z,32.44
2023-04-23T23:20:35.468Z,34.53
2023-04-23T23:21:39.509Z,33.63
2023-04-23T23:22:43.584Z,37.44
2023-04-23T23:23:47.460Z,24.63
2023-04-23T23:24:51.437Z,33.56
2023-04-23T23:25:55.630Z,39.00
2023-04-23T23:26:59.761Z,39.44
2023-04-23T23:28:03.593Z,38.63
2023-04-23T23:29:07.604Z,39.31
2023-04-23T23:30:11.755Z,34.13
2023-04-23T23:31:15.804Z,25.19
2023-04-23T23:32:19.720Z,28.75
2023-04-23T23:33:23.784Z,22.69
2023-04-23T23:34:29.705Z,32.63
2023-04-23T23:35:33.225Z,30.69
2023-04-23T23:36:38.563Z,35.31
2023-04-23T23:37:42.542Z,35.63
2023-04-23T23:38:46.434Z,36.80
2023-04-23T23:39:50.249Z,34.13
2023-04-23T23:40:54.182Z,35.56
2023-04-23T23:41:59.997Z,33.87
2023-04-23T23:43:03.930Z,31.37
2023-04-23T23:44:07.720Z,30.88
2023-04-23T23:45:11.940Z,31.75
2023-04-23T23:46:16.175Z,25.50
2023-04-23T23:47:20.299Z,24.50
2023-04-23T23:48:24.322Z,30.31
2023-04-23T23:49:28.101Z,33.25
2023-04-23T23:50:32.786Z,33.69
2023-04-23T23:51:39.685Z,34.06
2023-04-23T23:52:43.648Z,31.81
2023-04-23T23:53:47.443Z,35.00
2023-04-23T23:54:51.413Z,34.56
2023-04-23T23:55:55.256Z,33.44
2023-04-23T23:56:59.204Z,31.25
2023-04-23T23:58:03.005Z,28.06
2023-04-23T23:59:06.893Z,29.56
